createdAt,value
2023-01-17T18:04:49.530Z,62.38
2023-01-17T18:06:38.763Z,57.30
2023-01-17T18:08:32.531Z,59.00
2023-01-17T18:10:19.955Z,56.30
2023-01-17T18:12:08.379Z,60.78
2023-01-17T18:14:00.570Z,56.22
2023-01-17T18:15:48.480Z,59.65
2023-01-17T18:17:36.092Z,49.85
2023-01-17T18:19:25.437Z,52.25
2023-01-17T18:21:16.042Z,65.68
2023-01-17T18:23:03.515Z,57.25
2023-01-17T18:24:50.873Z,56.35
2023-01-17T18:26:41.686Z,53.33
2023-01-17T18:28:29.296Z,53.03
2023-01-17T18:30:17.023Z,77.28
2023-01-17T18:32:04.880Z,56.65
2023-01-17T18:33:54.221Z,46.47
2023-01-17T18:35:41.693Z,48.80
2023-01-17T18:37:29.387Z,45.28
2023-01-17T18:39:19.631Z,31.63
2023-01-17T18:41:26.103Z,57.03
2023-01-17T18:43:13.779Z,49.03
2023-01-17T18:45:01.187Z,57.05
2023-01-17T18:46:49.124Z,58.38
2023-01-17T18:48:37.698Z,62.85
2023-01-17T18:50:32.770Z,74.15
2023-01-17T18:52:23.462Z,78.57
2023-01-17T18:54:11.015Z,74.68
2023-01-17T18:56:01.018Z,73.30
2023-01-17T18:57:48.836Z,73.40
2023-01-17T18:59:36.309Z,55.20
2023-01-17T19:03:13.444Z,49.28
2023-01-17T19:06:51.002Z,61.58
2023-01-17T19:08:38.707Z,54.90
2023-01-17T19:12:19.481Z,48.83
2023-01-17T19:14:08.068Z,61.75
2023-01-17T19:16:00.281Z,55.05
2023-01-17T19:17:48.083Z,60.05
2023-01-17T19:19:35.557Z,59.05
2023-01-17T19:21:26.005Z,61.30
2023-01-17T19:23:14.433Z,56.22
2023-01-17T19:25:02.450Z,63.85
2023-01-17T19:26:54.222Z,56.30
2023-01-17T19:28:43.846Z,58.33
2023-01-17T19:30:32.846Z,60.03
2023-01-17T19:32:21.640Z,52.97
2023-01-17T19:34:09.988Z,54.10
2023-01-17T19:36:04.404Z,52.88
2023-01-17T19:37:54.341Z,60.03
2023-01-17T19:39:42.063Z,62.95
2023-01-17T19:41:30.839Z,78.60
2023-01-17T19:43:19.031Z,110.63
2023-01-17T19:45:08.622Z,91.05
2023-01-17T19:46:57.096Z,83.00
2023-01-17T19:48:45.066Z,77.10
2023-01-17T19:52:22.500Z,78.38
2023-01-17T19:54:10.400Z,76.00
2023-01-17T19:55:58.647Z,71.07
2023-01-17T19:57:46.652Z,72.70
2023-01-17T19:59:34.992Z,78.30
2023-01-17T20:01:29.130Z,93.28
2023-01-17T20:03:17.981Z,104.00
2023-01-17T20:06:55.626Z,134.70
2023-01-17T20:08:45.727Z,130.32
2023-01-17T20:10:34.784Z,127.53
2023-01-17T20:12:23.810Z,120.45
2023-01-17T20:14:16.669Z,114.32
2023-01-17T20:16:07.807Z,109.45
2023-01-17T20:17:57.359Z,108.15
2023-01-17T20:19:46.636Z,112.05
2023-01-17T20:21:36.334Z,116.78
2023-01-17T20:23:25.156Z,111.35
2023-01-17T20:25:13.615Z,115.53
2023-01-17T20:27:06.271Z,116.00
2023-01-17T20:28:55.099Z,125.90
2023-01-17T20:30:43.411Z,138.90
2023-01-17T20:32:32.790Z,140.70
2023-01-17T20:34:26.081Z,151.82
2023-01-17T20:36:21.428Z,145.52
2023-01-17T20:38:15.355Z,136.82
2023-01-17T20:40:04.791Z,113.55
2023-01-17T20:41:53.626Z,111.15
2023-01-17T20:43:48.271Z,98.28
2023-01-17T20:45:36.985Z,96.05
2023-01-17T20:47:30.286Z,100.72
2023-01-17T20:49:20.430Z,97.18
2023-01-17T20:51:12.583Z,94.75
2023-01-17T20:53:01.477Z,96.57
2023-01-17T20:54:52.291Z,98.22
2023-01-17T20:56:41.291Z,99.95
2023-01-17T20:58:31.910Z,101.03
2023-01-17T21:00:23.182Z,98.68
2023-01-17T21:02:18.399Z,129.43
2023-01-17T21:07:12.423Z,111.00
2023-01-17T21:09:01.075Z,126.28
2023-01-17T21:10:54.354Z,141.07
2023-01-17T21:12:45.593Z,146.63
2023-01-17T21:14:35.186Z,146.43
2023-01-17T21:16:28.437Z,136.75
2023-01-17T21:18:18.103Z,124.82
2023-01-17T21:20:08.231Z,121.07
2023-01-17T21:21:57.572Z,118.15
2023-01-17T21:23:46.436Z,115.07
2023-01-17T21:25:38.859Z,124.60
2023-01-17T21:27:27.870Z,140.38
2023-01-17T21:29:16.811Z,206.40
2023-01-17T21:31:25.101Z,223.77
2023-01-17T21:33:13.569Z,254.43
2023-01-17T21:35:01.845Z,426.95
2023-01-17T21:36:51.741Z,381.98
2023-01-17T21:38:39.997Z,282.60
2023-01-17T21:40:28.260Z,244.52
2023-01-17T21:42:16.068Z,270.75
2023-01-17T21:44:09.091Z,283.38
2023-01-17T21:45:57.389Z,336.42
2023-01-17T21:47:46.353Z,311.27
2023-01-17T21:49:34.443Z,313.17
2023-01-17T21:51:22.827Z,334.38
2023-01-17T21:53:11.384Z,322.67
2023-01-17T21:55:17.360Z,271.27
2023-01-17T21:57:23.868Z,262.50
2023-01-17T21:59:11.951Z,201.75
2023-01-17T22:02:59.515Z,173.88
2023-01-17T22:04:47.307Z,165.05
2023-01-17T22:06:34.940Z,146.40
2023-01-17T22:08:23.316Z,134.25
2023-01-17T22:10:11.400Z,133.60
2023-01-17T22:13:46.649Z,125.63
2023-01-17T22:15:36.503Z,130.40
2023-01-17T22:17:23.956Z,123.70
2023-01-17T22:19:11.699Z,119.60
2023-01-17T22:21:03.105Z,125.45
2023-01-17T22:22:50.265Z,122.55
2023-01-17T22:24:37.923Z,127.47
2023-01-17T22:26:30.230Z,136.68
2023-01-17T22:28:17.622Z,141.52
2023-01-17T22:30:09.119Z,137.10
2023-01-17T22:31:56.385Z,123.05
2023-01-17T22:33:45.809Z,133.10
2023-01-17T22:35:33.806Z,110.88
2023-01-17T22:37:21.162Z,120.78
2023-01-17T22:39:10.003Z,126.43
2023-01-17T22:41:08.777Z,111.95
2023-01-17T22:42:56.484Z,108.13
2023-01-17T22:44:43.814Z,104.82
2023-01-17T22:46:33.481Z,104.43
2023-01-17T22:48:20.947Z,103.63
2023-01-17T22:50:09.390Z,84.53
2023-01-17T22:51:57.069Z,95.25
2023-01-17T22:53:47.304Z,94.00
2023-01-17T22:55:34.891Z,88.55
2023-01-17T22:57:23.294Z,92.82
2023-01-17T22:59:11.810Z,88.30
2023-01-17T23:01:13.957Z,85.72
2023-01-17T23:03:02.086Z,79.05
2023-01-17T23:06:38.850Z,82.10
2023-01-17T23:08:26.603Z,79.55
2023-01-17T23:10:34.434Z,76.20
2023-01-17T23:12:21.824Z,81.20
2023-01-17T23:14:22.554Z,73.13
2023-01-17T23:16:28.434Z,73.07
2023-01-17T23:18:34.645Z,80.25
2023-01-17T23:20:22.158Z,79.55
2023-01-17T23:22:21.398Z,82.60
2023-01-17T23:24:08.740Z,78.78
2023-01-17T23:26:00.327Z,78.35
2023-01-17T23:28:06.572Z,74.50
2023-01-17T23:29:54.094Z,76.77
2023-01-17T23:31:41.482Z,75.60
2023-01-17T23:33:28.792Z,74.78
2023-01-17T23:35:18.552Z,78.65
2023-01-17T23:37:05.822Z,76.03
2023-01-17T23:38:53.097Z,82.22
2023-01-17T23:40:40.933Z,113.43
2023-01-17T23:42:47.044Z,126.13
2023-01-17T23:44:34.596Z,118.55
2023-01-17T23:49:57.095Z,94.57
2023-01-17T23:51:44.529Z,119.32
2023-01-17T23:53:32.628Z,104.43
2023-01-17T23:55:19.991Z,101.35
2023-01-17T23:57:07.450Z,124.22
2023-01-17T23:58:54.764Z,119.60
